sensor_id;sensor_type;location;lat;lon;timestamp;temperature;humidity
28773;DHT22;15925;51.222;5.678;2024-02-26T00:00:30;7.70;99.90
28773;DHT22;15925;51.222;5.678;2024-02-26T00:02:56;7.70;99.90
28773;DHT22;15925;51.222;5.678;2024-02-26T00:05:22;7.70;99.90
28773;DHT22;15925;51.222;5.678;2024-02-26T00:07:48;7.70;99.90
28773;DHT22;15925;51.222;5.678;2024-02-26T00:10:14;7.70;99.90
28773;DHT22;15925;51.222;5.678;2024-02-26T00:12:40;7.80;99.90
28773;DHT22;15925;51.222;5.678;2024-02-26T00:15:07;7.70;99.90
28773;DHT22;15925;51.222;5.678;2024-02-26T00:17:33;7.70;99.90
28773;DHT22;15925;51.222;5.678;2024-02-26T00:19:58;7.70;99.90
28773;DHT22;15925;51.222;5.678;2024-02-26T00:22:26;7.70;99.90
28773;DHT22;15925;51.222;5.678;2024-02-26T00:24:52;7.70;99.90
28773;DHT22;15925;51.222;5.678;2024-02-26T00:27:18;7.70;99.90
28773;DHT22;15925;51.222;5.678;2024-02-26T00:29:43;7.50;99.90
28773;DHT22;15925;51.222;5.678;2024-02-26T00:32:09;7.50;99.90
28773;DHT22;15925;51.222;5.678;2024-02-26T00:34:35;7.50;99.90
28773;DHT22;15925;51.222;5.678;2024-02-26T00:37:01;7.40;99.90
28773;DHT22;15925;51.222;5.678;2024-02-26T00:39:27;7.30;99.90
28773;DHT22;15925;51.222;5.678;2024-02-26T00:41:53;7.20;99.90
28773;DHT22;15925;51.222;5.678;2024-02-26T00:44:19;7.20;99.90
28773;DHT22;15925;51.222;5.678;2024-02-26T00:46:45;7.20;99.90
28773;DHT22;15925;51.222;5.678;2024-02-26T00:49:10;7.20;99.90
28773;DHT22;15925;51.222;5.678;2024-02-26T00:51:36;7.20;99.90
28773;DHT22;15925;51.222;5.678;2024-02-26T00:54:02;7.30;99.90
28773;DHT22;15925;51.222;5.678;2024-02-26T00:56:28;7.20;99.90
28773;DHT22;15925;51.222;5.678;2024-02-26T00:58:54;7.20;99.90
28773;DHT22;15925;51.222;5.678;2024-02-26T01:01:19;7.20;99.90
28773;DHT22;15925;51.222;5.678;2024-02-26T01:03:45;7.20;99.90
28773;DHT22;15925;51.222;5.678;2024-02-26T01:06:11;7.20;99.90
28773;DHT22;15925;51.222;5.678;2024-02-26T01:08:37;7.20;99.90
28773;DHT22;15925;51.222;5.678;2024-02-26T01:11:03;7.20;99.90
28773;DHT22;15925;51.222;5.678;2024-02-26T01:13:29;7.10;99.90
28773;DHT22;15925;51.222;5.678;2024-02-26T01:15:55;7.10;99.90
28773;DHT22;15925;51.222;5.678;2024-02-26T01:18:20;7.10;99.90
28773;DHT22;15925;51.222;5.678;2024-02-26T01:20:47;7.10;99.90
28773;DHT22;15925;51.222;5.678;2024-02-26T01:23:13;7.10;99.90
28773;DHT22;15925;51.222;5.678;2024-02-26T01:25:39;7.20;99.90
28773;DHT22;15925;51.222;5.678;2024-02-26T01:28:05;7.20;99.90
28773;DHT22;15925;51.222;5.678;2024-02-26T01:30:31;7.10;99.90
28773;DHT22;15925;51.222;5.678;2024-02-26T01:32:57;7.00;99.90
28773;DHT22;15925;51.222;5.678;2024-02-26T01:35:23;7.00;99.90
28773;DHT22;15925;51.222;5.678;2024-02-26T01:37:48;7.00;99.90
28773;DHT22;15925;51.222;5.678;2024-02-26T01:40:14;7.00;99.90
28773;DHT22;15925;51.222;5.678;2024-02-26T01:42:45;7.00;99.90
28773;DHT22;15925;51.222;5.678;2024-02-26T01:45:16;7.00;99.90
28773;DHT22;15925;51.222;5.678;2024-02-26T01:47:49;7.00;99.90
28773;DHT22;15925;51.222;5.678;2024-02-26T01:50:15;6.90;99.90
28773;DHT22;15925;51.222;5.678;2024-02-26T01:52:41;6.90;99.90
28773;DHT22;15925;51.222;5.678;2024-02-26T01:55:08;6.80;99.90
28773;DHT22;15925;51.222;5.678;2024-02-26T01:57:34;6.80;99.90
28773;DHT22;15925;51.222;5.678;2024-02-26T01:59:59;6.80;99.90
28773;DHT22;15925;51.222;5.678;2024-02-26T02:02:25;6.80;99.90
28773;DHT22;15925;51.222;5.678;2024-02-26T02:04:52;6.80;99.90
28773;DHT22;15925;51.222;5.678;2024-02-26T02:07:19;6.70;99.90
28773;DHT22;15925;51.222;5.678;2024-02-26T02:09:45;6.80;99.90
28773;DHT22;15925;51.222;5.678;2024-02-26T02:12:11;6.80;99.90
28773;DHT22;15925;51.222;5.678;2024-02-26T02:14:37;6.80;99.90
28773;DHT22;15925;51.222;5.678;2024-02-26T02:17:02;6.80;99.90
28773;DHT22;15925;51.222;5.678;2024-02-26T02:19:28;6.80;99.90
28773;DHT22;15925;51.222;5.678;2024-02-26T02:21:54;6.80;99.90
28773;DHT22;15925;51.222;5.678;2024-02-26T02:24:20;6.80;99.90
28773;DHT22;15925;51.222;5.678;2024-02-26T02:26:45;6.70;99.90
28773;DHT22;15925;51.222;5.678;2024-02-26T02:29:12;6.80;99.90
28773;DHT22;15925;51.222;5.678;2024-02-26T02:31:38;6.80;99.90
28773;DHT22;15925;51.222;5.678;2024-02-26T02:34:04;6.80;99.90
28773;DHT22;15925;51.222;5.678;2024-02-26T02:36:30;6.80;99.90
28773;DHT22;15925;51.222;5.678;2024-02-26T02:38:56;6.70;99.90
28773;DHT22;15925;51.222;5.678;2024-02-26T02:41:21;6.80;99.90
28773;DHT22;15925;51.222;5.678;2024-02-26T02:43:47;6.80;99.90
28773;DHT22;15925;51.222;5.678;2024-02-26T02:46:13;6.80;99.90
28773;DHT22;15925;51.222;5.678;2024-02-26T02:48:39;6.80;99.90
28773;DHT22;15925;51.222;5.678;2024-02-26T02:51:05;6.80;99.90
28773;DHT22;15925;51.222;5.678;2024-02-26T02:53:31;6.80;99.90
28773;DHT22;15925;51.222;5.678;2024-02-26T02:55:57;6.70;99.90
28773;DHT22;15925;51.222;5.678;2024-02-26T02:58:22;6.70;99.90
28773;DHT22;15925;51.222;5.678;2024-02-26T03:00:48;6.80;99.90
28773;DHT22;15925;51.222;5.678;2024-02-26T03:03:14;6.80;99.90
28773;DHT22;15925;51.222;5.678;2024-02-26T03:05:39;6.80;99.90
28773;DHT22;15925;51.222;5.678;2024-02-26T03:08:05;6.80;99.90
28773;DHT22;15925;51.222;5.678;2024-02-26T03:10:31;6.80;99.90
28773;DHT22;15925;51.222;5.678;2024-02-26T03:12:57;6.80;99.90
28773;DHT22;15925;51.222;5.678;2024-02-26T03:15:22;6.70;99.90
28773;DHT22;15925;51.222;5.678;2024-02-26T03:17:48;6.80;99.90
28773;DHT22;15925;51.222;5.678;2024-02-26T03:20:14;6.80;99.90
28773;DHT22;15925;51.222;5.678;2024-02-26T03:22:40;6.80;99.90
28773;DHT22;15925;51.222;5.678;2024-02-26T03:25:06;6.70;99.90
28773;DHT22;15925;51.222;5.678;2024-02-26T03:27:32;6.60;99.90
28773;DHT22;15925;51.222;5.678;2024-02-26T03:29:58;6.60;99.90
28773;DHT22;15925;51.222;5.678;2024-02-26T03:32:24;6.60;99.90
28773;DHT22;15925;51.222;5.678;2024-02-26T03:34:50;6.70;99.90
28773;DHT22;15925;51.222;5.678;2024-02-26T03:37:19;6.60;99.90
28773;DHT22;15925;51.222;5.678;2024-02-26T03:39:45;6.60;99.90
28773;DHT22;15925;51.222;5.678;2024-02-26T03:42:11;6.50;99.90
28773;DHT22;15925;51.222;5.678;2024-02-26T03:44:37;6.60;99.90
28773;DHT22;15925;51.222;5.678;2024-02-26T03:47:02;6.50;99.90
28773;DHT22;15925;51.222;5.678;2024-02-26T03:49:28;6.50;99.90
28773;DHT22;15925;51.222;5.678;2024-02-26T03:51:54;6.50;99.90
28773;DHT22;15925;51.222;5.678;2024-02-26T03:54:20;6.60;99.90
28773;DHT22;15925;51.222;5.678;2024-02-26T03:56:45;6.60;99.90
28773;DHT22;15925;51.222;5.678;2024-02-26T03:59:11;6.60;99.90
28773;DHT22;15925;51.222;5.678;2024-02-26T04:01:37;6.50;99.90
28773;DHT22;15925;51.222;5.678;2024-02-26T04:04:03;6.50;99.90
28773;DHT22;15925;51.222;5.678;2024-02-26T04:06:28;6.50;99.90
28773;DHT22;15925;51.222;5.678;2024-02-26T04:08:54;6.60;99.90
28773;DHT22;15925;51.222;5.678;2024-02-26T04:11:20;6.50;99.90
28773;DHT22;15925;51.222;5.678;2024-02-26T04:13:46;6.40;99.90
28773;DHT22;15925;51.222;5.678;2024-02-26T04:16:15;6.50;99.90
28773;DHT22;15925;51.222;5.678;2024-02-26T04:18:42;6.50;99.90
28773;DHT22;15925;51.222;5.678;2024-02-26T04:21:08;6.50;99.90
28773;DHT22;15925;51.222;5.678;2024-02-26T04:23:33;6.40;99.90
28773;DHT22;15925;51.222;5.678;2024-02-26T04:25:59;6.40;99.90
28773;DHT22;15925;51.222;5.678;2024-02-26T04:28:25;6.40;99.90
28773;DHT22;15925;51.222;5.678;2024-02-26T04:30:52;6.40;99.90
28773;DHT22;15925;51.222;5.678;2024-02-26T04:33:18;6.30;99.90
28773;DHT22;15925;51.222;5.678;2024-02-26T04:35:44;6.30;99.90
28773;DHT22;15925;51.222;5.678;2024-02-26T04:38:09;6.30;99.90
28773;DHT22;15925;51.222;5.678;2024-02-26T04:40:35;6.30;99.90
28773;DHT22;15925;51.222;5.678;2024-02-26T04:43:01;6.30;99.90
28773;DHT22;15925;51.222;5.678;2024-02-26T04:45:27;6.30;99.90
28773;DHT22;15925;51.222;5.678;2024-02-26T04:47:53;6.30;99.90
28773;DHT22;15925;51.222;5.678;2024-02-26T04:50:19;6.20;99.90
28773;DHT22;15925;51.222;5.678;2024-02-26T04:52:45;6.20;99.90
28773;DHT22;15925;51.222;5.678;2024-02-26T04:55:10;6.30;99.90
28773;DHT22;15925;51.222;5.678;2024-02-26T04:57:36;6.20;99.90
28773;DHT22;15925;51.222;5.678;2024-02-26T05:00:03;6.30;99.90
28773;DHT22;15925;51.222;5.678;2024-02-26T05:02:30;6.20;99.90
28773;DHT22;15925;51.222;5.678;2024-02-26T05:04:57;6.20;99.90
28773;DHT22;15925;51.222;5.678;2024-02-26T05:07:23;6.20;99.90
28773;DHT22;15925;51.222;5.678;2024-02-26T05:09:49;6.20;99.90
28773;DHT22;15925;51.222;5.678;2024-02-26T05:12:17;6.20;99.90
28773;DHT22;15925;51.222;5.678;2024-02-26T05:14:43;6.20;99.90
28773;DHT22;15925;51.222;5.678;2024-02-26T05:17:09;6.10;99.90
28773;DHT22;15925;51.222;5.678;2024-02-26T05:19:35;6.20;99.90
28773;DHT22;15925;51.222;5.678;2024-02-26T05:22:00;6.20;99.90
28773;DHT22;15925;51.222;5.678;2024-02-26T05:24:26;6.20;99.90
28773;DHT22;15925;51.222;5.678;2024-02-26T05:26:53;6.10;99.90
28773;DHT22;15925;51.222;5.678;2024-02-26T05:29:18;6.10;99.90
28773;DHT22;15925;51.222;5.678;2024-02-26T05:31:44;6.10;99.90
28773;DHT22;15925;51.222;5.678;2024-02-26T05:34:10;6.20;99.90
28773;DHT22;15925;51.222;5.678;2024-02-26T05:36:36;6.10;99.90
28773;DHT22;15925;51.222;5.678;2024-02-26T05:39:02;6.10;99.90
28773;DHT22;15925;51.222;5.678;2024-02-26T05:41:29;6.10;99.90
28773;DHT22;15925;51.222;5.678;2024-02-26T05:43:55;6.10;99.90
28773;DHT22;15925;51.222;5.678;2024-02-26T05:46:22;6.00;99.90
28773;DHT22;15925;51.222;5.678;2024-02-26T05:48:48;6.10;99.90
28773;DHT22;15925;51.222;5.678;2024-02-26T05:51:15;6.10;99.90
28773;DHT22;15925;51.222;5.678;2024-02-26T05:53:41;6.10;99.90
28773;DHT22;15925;51.222;5.678;2024-02-26T05:56:06;6.10;99.90
28773;DHT22;15925;51.222;5.678;2024-02-26T05:58:32;6.00;99.90
28773;DHT22;15925;51.222;5.678;2024-02-26T06:00:58;6.10;99.90
28773;DHT22;15925;51.222;5.678;2024-02-26T06:03:25;6.10;99.90
28773;DHT22;15925;51.222;5.678;2024-02-26T06:05:51;6.00;99.90
28773;DHT22;15925;51.222;5.678;2024-02-26T06:08:17;6.10;99.90
28773;DHT22;15925;51.222;5.678;2024-02-26T06:10:43;6.10;99.90
28773;DHT22;15925;51.222;5.678;2024-02-26T06:13:09;6.00;99.90
28773;DHT22;15925;51.222;5.678;2024-02-26T06:15:35;6.00;99.90
28773;DHT22;15925;51.222;5.678;2024-02-26T06:18:00;6.10;99.90
28773;DHT22;15925;51.222;5.678;2024-02-26T06:20:26;6.10;99.90
28773;DHT22;15925;51.222;5.678;2024-02-26T06:22:52;6.10;99.90
28773;DHT22;15925;51.222;5.678;2024-02-26T06:25:21;6.00;99.90
28773;DHT22;15925;51.222;5.678;2024-02-26T06:27:46;6.00;99.90
28773;DHT22;15925;51.222;5.678;2024-02-26T06:30:12;6.10;99.90
28773;DHT22;15925;51.222;5.678;2024-02-26T06:32:38;6.00;99.90
28773;DHT22;15925;51.222;5.678;2024-02-26T06:35:04;6.10;99.90
28773;DHT22;15925;51.222;5.678;2024-02-26T06:37:35;6.00;99.90
28773;DHT22;15925;51.222;5.678;2024-02-26T06:40:02;6.00;99.90
28773;DHT22;15925;51.222;5.678;2024-02-26T06:42:30;6.00;99.90
28773;DHT22;15925;51.222;5.678;2024-02-26T06:44:57;6.00;99.90
28773;DHT22;15925;51.222;5.678;2024-02-26T06:47:23;6.10;99.90
28773;DHT22;15925;51.222;5.678;2024-02-26T06:49:49;6.10;99.90
28773;DHT22;15925;51.222;5.678;2024-02-26T06:52:15;6.10;99.90
28773;DHT22;15925;51.222;5.678;2024-02-26T06:54:40;6.10;99.90
28773;DHT22;15925;51.222;5.678;2024-02-26T06:57:07;6.10;99.90
28773;DHT22;15925;51.222;5.678;2024-02-26T06:59:32;6.10;99.90
28773;DHT22;15925;51.222;5.678;2024-02-26T07:01:58;6.10;99.90
28773;DHT22;15925;51.222;5.678;2024-02-26T07:04:24;6.10;99.90
28773;DHT22;15925;51.222;5.678;2024-02-26T07:06:50;6.10;99.90
28773;DHT22;15925;51.222;5.678;2024-02-26T07:09:15;6.10;99.90
28773;DHT22;15925;51.222;5.678;2024-02-26T07:11:41;6.10;99.90
28773;DHT22;15925;51.222;5.678;2024-02-26T07:14:12;6.10;99.90
28773;DHT22;15925;51.222;5.678;2024-02-26T07:16:38;6.10;99.90
28773;DHT22;15925;51.222;5.678;2024-02-26T07:19:04;6.10;99.90
28773;DHT22;15925;51.222;5.678;2024-02-26T07:21:29;6.00;99.90
28773;DHT22;15925;51.222;5.678;2024-02-26T07:23:56;6.10;99.90
28773;DHT22;15925;51.222;5.678;2024-02-26T07:26:21;6.10;99.90
28773;DHT22;15925;51.222;5.678;2024-02-26T07:28:49;6.10;99.90
28773;DHT22;15925;51.222;5.678;2024-02-26T07:31:17;6.00;99.90
28773;DHT22;15925;51.222;5.678;2024-02-26T07:33:42;6.00;99.90
28773;DHT22;15925;51.222;5.678;2024-02-26T07:36:08;6.00;99.90
28773;DHT22;15925;51.222;5.678;2024-02-26T07:38:34;6.10;99.90
28773;DHT22;15925;51.222;5.678;2024-02-26T07:41:02;6.10;99.90
28773;DHT22;15925;51.222;5.678;2024-02-26T07:43:28;6.00;99.90
28773;DHT22;15925;51.222;5.678;2024-02-26T07:45:54;6.00;99.90
28773;DHT22;15925;51.222;5.678;2024-02-26T07:48:20;6.00;99.90
28773;DHT22;15925;51.222;5.678;2024-02-26T07:50:45;6.00;99.90
28773;DHT22;15925;51.222;5.678;2024-02-26T07:53:11;6.00;99.90
28773;DHT22;15925;51.222;5.678;2024-02-26T07:55:37;6.00;99.90
28773;DHT22;15925;51.222;5.678;2024-02-26T07:58:03;6.00;99.90
28773;DHT22;15925;51.222;5.678;2024-02-26T08:00:29;5.90;99.90
28773;DHT22;15925;51.222;5.678;2024-02-26T08:02:54;6.00;99.90
28773;DHT22;15925;51.222;5.678;2024-02-26T08:05:20;6.00;99.90
28773;DHT22;15925;51.222;5.678;2024-02-26T08:07:46;6.00;99.90
28773;DHT22;15925;51.222;5.678;2024-02-26T08:10:12;6.00;99.90
28773;DHT22;15925;51.222;5.678;2024-02-26T08:12:37;6.00;99.90
28773;DHT22;15925;51.222;5.678;2024-02-26T08:15:04;6.00;99.90
28773;DHT22;15925;51.222;5.678;2024-02-26T08:17:30;6.00;99.90
28773;DHT22;15925;51.222;5.678;2024-02-26T08:19:56;6.00;99.90
28773;DHT22;15925;51.222;5.678;2024-02-26T08:22:22;6.00;99.90
28773;DHT22;15925;51.222;5.678;2024-02-26T08:24:48;6.00;99.90
28773;DHT22;15925;51.222;5.678;2024-02-26T08:27:14;6.00;99.90
28773;DHT22;15925;51.222;5.678;2024-02-26T08:29:39;6.10;99.90
28773;DHT22;15925;51.222;5.678;2024-02-26T08:32:05;6.10;99.90
28773;DHT22;15925;51.222;5.678;2024-02-26T08:34:32;6.10;99.90
28773;DHT22;15925;51.222;5.678;2024-02-26T08:36:58;6.10;99.90
28773;DHT22;15925;51.222;5.678;2024-02-26T08:39:24;6.10;99.90
28773;DHT22;15925;51.222;5.678;2024-02-26T08:41:51;6.10;99.90
28773;DHT22;15925;51.222;5.678;2024-02-26T08:44:17;6.10;99.90
28773;DHT22;15925;51.222;5.678;2024-02-26T08:46:43;6.10;99.90
28773;DHT22;15925;51.222;5.678;2024-02-26T08:49:09;6.20;99.90
28773;DHT22;15925;51.222;5.678;2024-02-26T08:51:35;6.10;99.90
28773;DHT22;15925;51.222;5.678;2024-02-26T08:54:00;6.10;99.90
28773;DHT22;15925;51.222;5.678;2024-02-26T08:56:26;6.20;99.90
28773;DHT22;15925;51.222;5.678;2024-02-26T08:58:52;6.10;99.90
28773;DHT22;15925;51.222;5.678;2024-02-26T09:01:21;6.10;99.90
28773;DHT22;15925;51.222;5.678;2024-02-26T09:03:48;6.10;99.90
28773;DHT22;15925;51.222;5.678;2024-02-26T09:06:15;6.10;99.90
28773;DHT22;15925;51.222;5.678;2024-02-26T09:08:41;6.10;99.90
28773;DHT22;15925;51.222;5.678;2024-02-26T09:11:07;6.10;99.90
28773;DHT22;15925;51.222;5.678;2024-02-26T09:13:33;6.10;99.90
28773;DHT22;15925;51.222;5.678;2024-02-26T09:15:59;6.10;99.90
28773;DHT22;15925;51.222;5.678;2024-02-26T09:18:25;6.10;99.90
28773;DHT22;15925;51.222;5.678;2024-02-26T09:20:50;6.10;99.90
28773;DHT22;15925;51.222;5.678;2024-02-26T09:23:16;6.00;99.90
28773;DHT22;15925;51.222;5.678;2024-02-26T09:25:42;6.10;99.90
28773;DHT22;15925;51.222;5.678;2024-02-26T09:28:08;6.00;99.90
28773;DHT22;15925;51.222;5.678;2024-02-26T09:30:36;6.10;99.90
28773;DHT22;15925;51.222;5.678;2024-02-26T09:33:02;6.10;99.90
28773;DHT22;15925;51.222;5.678;2024-02-26T09:35:27;6.00;99.90
28773;DHT22;15925;51.222;5.678;2024-02-26T09:37:54;6.00;99.90
28773;DHT22;15925;51.222;5.678;2024-02-26T09:40:20;6.10;99.90
28773;DHT22;15925;51.222;5.678;2024-02-26T09:42:46;6.00;99.90
28773;DHT22;15925;51.222;5.678;2024-02-26T09:45:18;6.00;99.90
28773;DHT22;15925;51.222;5.678;2024-02-26T09:47:45;6.00;99.90
28773;DHT22;15925;51.222;5.678;2024-02-26T09:50:13;6.00;99.90
28773;DHT22;15925;51.222;5.678;2024-02-26T09:52:41;6.00;99.90
28773;DHT22;15925;51.222;5.678;2024-02-26T09:55:08;6.10;99.90
28773;DHT22;15925;51.222;5.678;2024-02-26T09:57:36;6.00;99.90
28773;DHT22;15925;51.222;5.678;2024-02-26T10:00:03;6.00;99.90
28773;DHT22;15925;51.222;5.678;2024-02-26T10:02:35;5.90;99.90
28773;DHT22;15925;51.222;5.678;2024-02-26T10:05:03;6.00;99.90
28773;DHT22;15925;51.222;5.678;2024-02-26T10:10:15;6.00;99.90
28773;DHT22;15925;51.222;5.678;2024-02-26T10:12:42;6.00;99.90
28773;DHT22;15925;51.222;5.678;2024-02-26T10:15:08;6.00;99.90
28773;DHT22;15925;51.222;5.678;2024-02-26T10:17:34;6.00;99.90
28773;DHT22;15925;51.222;5.678;2024-02-26T10:20:18;6.00;99.90
28773;DHT22;15925;51.222;5.678;2024-02-26T10:22:47;6.00;99.90
28773;DHT22;15925;51.222;5.678;2024-02-26T10:25:14;6.00;99.90
28773;DHT22;15925;51.222;5.678;2024-02-26T10:27:41;6.00;99.90
28773;DHT22;15925;51.222;5.678;2024-02-26T10:30:18;6.00;99.90
28773;DHT22;15925;51.222;5.678;2024-02-26T10:32:45;6.00;99.90
28773;DHT22;15925;51.222;5.678;2024-02-26T10:35:12;6.00;99.90
28773;DHT22;15925;51.222;5.678;2024-02-26T10:37:40;6.10;99.90
28773;DHT22;15925;51.222;5.678;2024-02-26T10:40:09;6.10;99.90
28773;DHT22;15925;51.222;5.678;2024-02-26T10:42:35;6.00;99.90
28773;DHT22;15925;51.222;5.678;2024-02-26T10:45:00;6.00;99.90
28773;DHT22;15925;51.222;5.678;2024-02-26T10:47:29;6.00;99.90
28773;DHT22;15925;51.222;5.678;2024-02-26T10:49:56;6.00;99.90
28773;DHT22;15925;51.222;5.678;2024-02-26T10:52:23;6.00;99.90
28773;DHT22;15925;51.222;5.678;2024-02-26T10:54:54;6.00;99.90
28773;DHT22;15925;51.222;5.678;2024-02-26T10:57:22;6.00;99.90
28773;DHT22;15925;51.222;5.678;2024-02-26T10:59:51;6.00;99.90
28773;DHT22;15925;51.222;5.678;2024-02-26T11:02:20;6.00;99.90
28773;DHT22;15925;51.222;5.678;2024-02-26T11:04:46;6.00;99.90
28773;DHT22;15925;51.222;5.678;2024-02-26T11:07:13;6.00;99.90
28773;DHT22;15925;51.222;5.678;2024-02-26T11:09:40;6.10;99.90
28773;DHT22;15925;51.222;5.678;2024-02-26T11:12:11;6.00;99.90
28773;DHT22;15925;51.222;5.678;2024-02-26T11:14:40;6.00;99.90
28773;DHT22;15925;51.222;5.678;2024-02-26T11:17:11;6.00;99.90
28773;DHT22;15925;51.222;5.678;2024-02-26T11:19:38;6.10;99.90
28773;DHT22;15925;51.222;5.678;2024-02-26T11:22:07;6.00;99.90
28773;DHT22;15925;51.222;5.678;2024-02-26T11:24:32;6.10;99.90
28773;DHT22;15925;51.222;5.678;2024-02-26T11:27:01;6.20;99.90
28773;DHT22;15925;51.222;5.678;2024-02-26T11:29:33;6.20;99.90
28773;DHT22;15925;51.222;5.678;2024-02-26T11:32:00;6.20;99.90
28773;DHT22;15925;51.222;5.678;2024-02-26T11:34:26;6.20;99.90
28773;DHT22;15925;51.222;5.678;2024-02-26T11:36:52;6.20;99.90
28773;DHT22;15925;51.222;5.678;2024-02-26T11:39:18;6.30;99.90
28773;DHT22;15925;51.222;5.678;2024-02-26T11:41:45;6.30;99.90
28773;DHT22;15925;51.222;5.678;2024-02-26T11:44:11;6.30;99.90
28773;DHT22;15925;51.222;5.678;2024-02-26T11:46:41;6.30;99.90
28773;DHT22;15925;51.222;5.678;2024-02-26T11:51:57;6.30;99.90
28773;DHT22;15925;51.222;5.678;2024-02-26T11:57:24;6.20;99.90
28773;DHT22;15925;51.222;5.678;2024-02-26T11:59:51;6.20;99.90
28773;DHT22;15925;51.222;5.678;2024-02-26T12:05:31;6.20;99.90
28773;DHT22;15925;51.222;5.678;2024-02-26T12:10:41;6.10;99.90
28773;DHT22;15925;51.222;5.678;2024-02-26T12:13:12;6.10;99.90
28773;DHT22;15925;51.222;5.678;2024-02-26T12:15:39;6.10;99.90
28773;DHT22;15925;51.222;5.678;2024-02-26T12:18:07;6.10;99.90
28773;DHT22;15925;51.222;5.678;2024-02-26T12:20:38;6.10;99.90
28773;DHT22;15925;51.222;5.678;2024-02-26T12:23:04;6.10;99.90
28773;DHT22;15925;51.222;5.678;2024-02-26T12:25:31;6.00;99.90
28773;DHT22;15925;51.222;5.678;2024-02-26T12:27:57;6.00;99.90
28773;DHT22;15925;51.222;5.678;2024-02-26T12:30:24;6.00;99.90
28773;DHT22;15925;51.222;5.678;2024-02-26T12:33:00;6.00;99.90
28773;DHT22;15925;51.222;5.678;2024-02-26T12:35:27;6.00;99.90
28773;DHT22;15925;51.222;5.678;2024-02-26T12:37:54;6.00;99.90
28773;DHT22;15925;51.222;5.678;2024-02-26T12:40:20;6.00;99.90
28773;DHT22;15925;51.222;5.678;2024-02-26T12:42:46;6.10;99.90
28773;DHT22;15925;51.222;5.678;2024-02-26T12:45:13;6.10;99.90
28773;DHT22;15925;51.222;5.678;2024-02-26T12:47:43;6.00;99.90
28773;DHT22;15925;51.222;5.678;2024-02-26T12:50:10;6.10;99.90
28773;DHT22;15925;51.222;5.678;2024-02-26T12:52:39;6.10;99.90
28773;DHT22;15925;51.222;5.678;2024-02-26T12:55:06;6.20;99.90
28773;DHT22;15925;51.222;5.678;2024-02-26T12:57:38;6.20;99.90
28773;DHT22;15925;51.222;5.678;2024-02-26T13:00:06;6.20;99.90
28773;DHT22;15925;51.222;5.678;2024-02-26T13:02:37;6.30;99.90
28773;DHT22;15925;51.222;5.678;2024-02-26T13:05:06;6.30;99.90
28773;DHT22;15925;51.222;5.678;2024-02-26T13:07:34;6.30;99.90
28773;DHT22;15925;51.222;5.678;2024-02-26T13:10:00;6.30;99.90
28773;DHT22;15925;51.222;5.678;2024-02-26T13:12:26;6.30;99.90
28773;DHT22;15925;51.222;5.678;2024-02-26T13:15:02;6.20;99.90
28773;DHT22;15925;51.222;5.678;2024-02-26T13:17:32;6.30;99.90
28773;DHT22;15925;51.222;5.678;2024-02-26T13:19:58;6.30;99.90
28773;DHT22;15925;51.222;5.678;2024-02-26T13:22:24;6.20;99.90
28773;DHT22;15925;51.222;5.678;2024-02-26T13:24:59;6.30;99.90
28773;DHT22;15925;51.222;5.678;2024-02-26T13:27:25;6.30;99.90
28773;DHT22;15925;51.222;5.678;2024-02-26T13:30:11;6.30;99.90
28773;DHT22;15925;51.222;5.678;2024-02-26T13:32:39;6.30;99.90
28773;DHT22;15925;51.222;5.678;2024-02-26T13:35:12;6.30;99.90
28773;DHT22;15925;51.222;5.678;2024-02-26T13:37:39;6.30;99.90
28773;DHT22;15925;51.222;5.678;2024-02-26T13:40:10;6.30;99.90
28773;DHT22;15925;51.222;5.678;2024-02-26T13:42:37;6.30;99.90
28773;DHT22;15925;51.222;5.678;2024-02-26T13:45:03;6.40;99.90
28773;DHT22;15925;51.222;5.678;2024-02-26T13:47:33;6.40;99.90
28773;DHT22;15925;51.222;5.678;2024-02-26T13:49:58;6.30;99.90
28773;DHT22;15925;51.222;5.678;2024-02-26T13:52:25;6.40;99.90
28773;DHT22;15925;51.222;5.678;2024-02-26T13:54:51;6.30;99.90
28773;DHT22;15925;51.222;5.678;2024-02-26T13:57:18;6.30;99.90
28773;DHT22;15925;51.222;5.678;2024-02-26T13:59:44;6.30;99.90
28773;DHT22;15925;51.222;5.678;2024-02-26T14:02:10;6.30;99.90
28773;DHT22;15925;51.222;5.678;2024-02-26T14:04:37;6.30;99.90
28773;DHT22;15925;51.222;5.678;2024-02-26T14:07:03;6.40;99.90
28773;DHT22;15925;51.222;5.678;2024-02-26T14:09:29;6.40;99.90
28773;DHT22;15925;51.222;5.678;2024-02-26T14:11:55;6.40;99.90
28773;DHT22;15925;51.222;5.678;2024-02-26T14:14:21;6.50;99.90
28773;DHT22;15925;51.222;5.678;2024-02-26T14:16:46;6.50;99.90
28773;DHT22;15925;51.222;5.678;2024-02-26T14:19:12;6.50;99.90
28773;DHT22;15925;51.222;5.678;2024-02-26T14:21:38;6.50;99.90
28773;DHT22;15925;51.222;5.678;2024-02-26T14:24:05;6.60;99.90
28773;DHT22;15925;51.222;5.678;2024-02-26T14:26:30;6.60;99.90
28773;DHT22;15925;51.222;5.678;2024-02-26T14:28:56;6.60;99.90
28773;DHT22;15925;51.222;5.678;2024-02-26T14:31:22;6.60;99.90
28773;DHT22;15925;51.222;5.678;2024-02-26T14:33:48;6.50;99.90
28773;DHT22;15925;51.222;5.678;2024-02-26T14:36:14;6.50;99.90
28773;DHT22;15925;51.222;5.678;2024-02-26T14:38:40;6.40;99.90
28773;DHT22;15925;51.222;5.678;2024-02-26T14:41:06;6.50;99.90
28773;DHT22;15925;51.222;5.678;2024-02-26T14:43:32;6.50;99.90
28773;DHT22;15925;51.222;5.678;2024-02-26T14:45:58;6.50;99.90
28773;DHT22;15925;51.222;5.678;2024-02-26T14:48:24;6.50;99.90
28773;DHT22;15925;51.222;5.678;2024-02-26T14:50:50;6.50;99.90
28773;DHT22;15925;51.222;5.678;2024-02-26T14:53:17;6.60;99.90
28773;DHT22;15925;51.222;5.678;2024-02-26T14:55:42;6.60;99.90
28773;DHT22;15925;51.222;5.678;2024-02-26T14:58:09;6.50;99.90
28773;DHT22;15925;51.222;5.678;2024-02-26T15:00:38;6.50;99.90
28773;DHT22;15925;51.222;5.678;2024-02-26T15:03:04;6.50;99.90
28773;DHT22;15925;51.222;5.678;2024-02-26T15:05:32;6.50;99.90
28773;DHT22;15925;51.222;5.678;2024-02-26T15:07:58;6.50;99.90
28773;DHT22;15925;51.222;5.678;2024-02-26T15:10:25;6.50;99.90
28773;DHT22;15925;51.222;5.678;2024-02-26T15:12:51;6.50;99.90
28773;DHT22;15925;51.222;5.678;2024-02-26T15:15:21;6.40;99.90
28773;DHT22;15925;51.222;5.678;2024-02-26T15:17:47;6.40;99.90
28773;DHT22;15925;51.222;5.678;2024-02-26T15:20:15;6.40;99.90
28773;DHT22;15925;51.222;5.678;2024-02-26T15:22:40;6.30;99.90
28773;DHT22;15925;51.222;5.678;2024-02-26T15:25:07;6.30;99.90
28773;DHT22;15925;51.222;5.678;2024-02-26T15:27:33;6.30;99.90
28773;DHT22;15925;51.222;5.678;2024-02-26T15:30:00;6.30;99.90
28773;DHT22;15925;51.222;5.678;2024-02-26T15:32:26;6.30;99.90
28773;DHT22;15925;51.222;5.678;2024-02-26T15:34:52;6.30;99.90
28773;DHT22;15925;51.222;5.678;2024-02-26T15:37:18;6.30;99.90
28773;DHT22;15925;51.222;5.678;2024-02-26T15:39:44;6.30;99.90
28773;DHT22;15925;51.222;5.678;2024-02-26T15:42:11;6.30;99.90
28773;DHT22;15925;51.222;5.678;2024-02-26T15:44:37;6.30;99.90
28773;DHT22;15925;51.222;5.678;2024-02-26T15:47:04;6.30;99.90
28773;DHT22;15925;51.222;5.678;2024-02-26T15:49:31;6.30;99.90
28773;DHT22;15925;51.222;5.678;2024-02-26T15:51:57;6.30;99.90
28773;DHT22;15925;51.222;5.678;2024-02-26T15:54:22;6.30;99.90